sensor_id;sensor_type;location;lat;lon;timestamp;P1;durP1;ratioP1;P2;durP2;ratioP2
19095;SDS011;9680;52.520;13.332;2023-12-20T00:01:02;6.53;;;3.67;;
19095;SDS011;9680;52.520;13.332;2023-12-20T00:03:29;6.10;;;3.50;;
19095;SDS011;9680;52.520;13.332;2023-12-20T00:05:55;5.93;;;3.00;;
19095;SDS011;9680;52.520;13.332;2023-12-20T00:08:22;5.60;;;3.27;;
19095;SDS011;9680;52.520;13.332;2023-12-20T00:10:49;6.57;;;3.53;;
19095;SDS011;9680;52.520;13.332;2023-12-20T00:13:17;6.57;;;3.50;;
19095;SDS011;9680;52.520;13.332;2023-12-20T00:15:44;5.77;;;3.30;;
19095;SDS011;9680;52.520;13.332;2023-12-20T00:18:11;6.10;;;3.40;;
19095;SDS011;9680;52.520;13.332;2023-12-20T00:20:40;5.73;;;3.60;;
19095;SDS011;9680;52.520;13.332;2023-12-20T00:23:07;6.50;;;3.23;;
19095;SDS011;9680;52.520;13.332;2023-12-20T00:25:34;5.60;;;3.23;;
19095;SDS011;9680;52.520;13.332;2023-12-20T00:28:00;7.97;;;3.77;;
19095;SDS011;9680;52.520;13.332;2023-12-20T00:30:29;5.60;;;3.20;;
19095;SDS011;9680;52.520;13.332;2023-12-20T00:32:56;6.40;;;3.37;;
19095;SDS011;9680;52.520;13.332;2023-12-20T00:35:22;5.50;;;2.93;;
19095;SDS011;9680;52.520;13.332;2023-12-20T00:37:49;7.20;;;3.40;;
19095;SDS011;9680;52.520;13.332;2023-12-20T00:40:16;5.57;;;3.00;;
19095;SDS011;9680;52.520;13.332;2023-12-20T00:42:42;6.10;;;3.30;;
19095;SDS011;9680;52.520;13.332;2023-12-20T00:45:09;5.60;;;3.10;;
19095;SDS011;9680;52.520;13.332;2023-12-20T00:47:37;6.97;;;2.97;;
19095;SDS011;9680;52.520;13.332;2023-12-20T00:50:04;6.17;;;3.40;;
19095;SDS011;9680;52.520;13.332;2023-12-20T00:52:32;4.93;;;2.80;;
19095;SDS011;9680;52.520;13.332;2023-12-20T00:54:58;5.77;;;3.07;;
19095;SDS011;9680;52.520;13.332;2023-12-20T00:57:25;7.47;;;3.00;;
19095;SDS011;9680;52.520;13.332;2023-12-20T00:59:52;5.83;;;2.97;;
19095;SDS011;9680;52.520;13.332;2023-12-20T01:02:19;5.93;;;3.10;;
19095;SDS011;9680;52.520;13.332;2023-12-20T01:04:47;7.30;;;3.30;;
19095;SDS011;9680;52.520;13.332;2023-12-20T01:07:13;6.27;;;3.53;;
19095;SDS011;9680;52.520;13.332;2023-12-20T01:09:40;6.03;;;3.23;;
19095;SDS011;9680;52.520;13.332;2023-12-20T01:12:07;8.10;;;3.43;;
19095;SDS011;9680;52.520;13.332;2023-12-20T01:14:33;7.13;;;3.60;;
19095;SDS011;9680;52.520;13.332;2023-12-20T01:17:01;7.17;;;3.30;;
19095;SDS011;9680;52.520;13.332;2023-12-20T01:19:28;5.90;;;3.43;;
19095;SDS011;9680;52.520;13.332;2023-12-20T01:21:56;7.63;;;3.50;;
19095;SDS011;9680;52.520;13.332;2023-12-20T01:24:23;5.57;;;3.10;;
19095;SDS011;9680;52.520;13.332;2023-12-20T01:26:49;5.53;;;3.30;;
19095;SDS011;9680;52.520;13.332;2023-12-20T01:29:16;6.73;;;3.27;;
19095;SDS011;9680;52.520;13.332;2023-12-20T01:31:43;5.13;;;3.23;;
19095;SDS011;9680;52.520;13.332;2023-12-20T01:34:09;5.77;;;3.10;;
19095;SDS011;9680;52.520;13.332;2023-12-20T01:36:36;6.43;;;3.00;;
19095;SDS011;9680;52.520;13.332;2023-12-20T01:39:04;5.37;;;3.20;;
19095;SDS011;9680;52.520;13.332;2023-12-20T01:41:31;5.60;;;3.00;;
19095;SDS011;9680;52.520;13.332;2023-12-20T01:43:58;5.57;;;3.20;;
19095;SDS011;9680;52.520;13.332;2023-12-20T01:46:24;5.77;;;3.13;;
19095;SDS011;9680;52.520;13.332;2023-12-20T01:48:52;6.53;;;3.27;;
19095;SDS011;9680;52.520;13.332;2023-12-20T01:51:19;5.90;;;3.00;;
19095;SDS011;9680;52.520;13.332;2023-12-20T01:53:46;5.37;;;3.10;;
19095;SDS011;9680;52.520;13.332;2023-12-20T01:56:15;5.60;;;2.73;;
19095;SDS011;9680;52.520;13.332;2023-12-20T01:58:43;5.07;;;2.40;;
19095;SDS011;9680;52.520;13.332;2023-12-20T02:01:11;4.10;;;2.30;;
19095;SDS011;9680;52.520;13.332;2023-12-20T02:03:38;5.93;;;3.10;;
19095;SDS011;9680;52.520;13.332;2023-12-20T02:06:06;5.47;;;2.90;;
19095;SDS011;9680;52.520;13.332;2023-12-20T02:08:33;6.97;;;2.73;;
19095;SDS011;9680;52.520;13.332;2023-12-20T02:11:00;5.93;;;2.93;;
19095;SDS011;9680;52.520;13.332;2023-12-20T02:13:29;5.83;;;2.60;;
19095;SDS011;9680;52.520;13.332;2023-12-20T02:15:56;4.67;;;2.80;;
19095;SDS011;9680;52.520;13.332;2023-12-20T02:18:23;5.57;;;2.97;;
19095;SDS011;9680;52.520;13.332;2023-12-20T02:20:50;6.83;;;3.20;;
19095;SDS011;9680;52.520;13.332;2023-12-20T02:23:19;5.17;;;2.60;;
19095;SDS011;9680;52.520;13.332;2023-12-20T02:25:46;4.47;;;2.40;;
19095;SDS011;9680;52.520;13.332;2023-12-20T02:28:12;5.60;;;2.90;;
19095;SDS011;9680;52.520;13.332;2023-12-20T02:30:39;4.60;;;2.33;;
19095;SDS011;9680;52.520;13.332;2023-12-20T02:33:07;5.97;;;2.40;;
19095;SDS011;9680;52.520;13.332;2023-12-20T02:35:36;4.60;;;2.50;;
19095;SDS011;9680;52.520;13.332;2023-12-20T02:38:03;5.00;;;2.70;;
19095;SDS011;9680;52.520;13.332;2023-12-20T02:40:31;6.67;;;2.90;;
19095;SDS011;9680;52.520;13.332;2023-12-20T02:42:58;6.57;;;3.53;;
19095;SDS011;9680;52.520;13.332;2023-12-20T02:45:24;6.23;;;3.07;;
19095;SDS011;9680;52.520;13.332;2023-12-20T02:47:52;7.07;;;3.27;;
19095;SDS011;9680;52.520;13.332;2023-12-20T02:50:19;5.30;;;2.97;;
19095;SDS011;9680;52.520;13.332;2023-12-20T02:52:45;6.47;;;3.37;;
19095;SDS011;9680;52.520;13.332;2023-12-20T02:55:12;6.17;;;3.43;;
19095;SDS011;9680;52.520;13.332;2023-12-20T02:57:40;6.83;;;3.23;;
19095;SDS011;9680;52.520;13.332;2023-12-20T03:00:08;9.20;;;3.53;;
19095;SDS011;9680;52.520;13.332;2023-12-20T03:02:35;6.57;;;3.47;;
19095;SDS011;9680;52.520;13.332;2023-12-20T03:05:02;7.67;;;3.40;;
19095;SDS011;9680;52.520;13.332;2023-12-20T03:07:29;7.40;;;3.87;;
19095;SDS011;9680;52.520;13.332;2023-12-20T03:09:56;11.50;;;3.53;;
19095;SDS011;9680;52.520;13.332;2023-12-20T03:12:23;8.23;;;3.40;;
19095;SDS011;9680;52.520;13.332;2023-12-20T03:14:51;8.20;;;3.57;;
19095;SDS011;9680;52.520;13.332;2023-12-20T03:17:17;9.47;;;3.13;;
19095;SDS011;9680;52.520;13.332;2023-12-20T03:19:45;7.23;;;2.80;;
19095;SDS011;9680;52.520;13.332;2023-12-20T03:22:12;9.93;;;2.70;;
19095;SDS011;9680;52.520;13.332;2023-12-20T03:24:39;5.57;;;2.50;;
19095;SDS011;9680;52.520;13.332;2023-12-20T03:27:05;6.40;;;2.50;;
19095;SDS011;9680;52.520;13.332;2023-12-20T03:29:32;6.57;;;2.27;;
19095;SDS011;9680;52.520;13.332;2023-12-20T03:32:00;5.70;;;1.90;;
19095;SDS011;9680;52.520;13.332;2023-12-20T03:34:27;6.70;;;2.33;;
19095;SDS011;9680;52.520;13.332;2023-12-20T03:36:54;8.30;;;1.80;;
19095;SDS011;9680;52.520;13.332;2023-12-20T03:39:21;5.33;;;1.70;;
19095;SDS011;9680;52.520;13.332;2023-12-20T03:41:47;10.30;;;1.83;;
19095;SDS011;9680;52.520;13.332;2023-12-20T03:44:14;5.13;;;1.63;;
19095;SDS011;9680;52.520;13.332;2023-12-20T03:46:41;5.60;;;1.90;;
19095;SDS011;9680;52.520;13.332;2023-12-20T03:49:09;12.23;;;1.87;;
19095;SDS011;9680;52.520;13.332;2023-12-20T03:51:35;7.23;;;1.47;;
19095;SDS011;9680;52.520;13.332;2023-12-20T03:54:02;11.17;;;1.70;;
19095;SDS011;9680;52.520;13.332;2023-12-20T03:56:29;5.03;;;1.60;;
19095;SDS011;9680;52.520;13.332;2023-12-20T03:58:56;6.60;;;1.43;;
19095;SDS011;9680;52.520;13.332;2023-12-20T04:01:22;10.87;;;1.70;;
19095;SDS011;9680;52.520;13.332;2023-12-20T04:03:49;7.63;;;1.83;;
19095;SDS011;9680;52.520;13.332;2023-12-20T04:06:17;10.87;;;1.73;;
19095;SDS011;9680;52.520;13.332;2023-12-20T04:08:44;8.43;;;1.80;;
19095;SDS011;9680;52.520;13.332;2023-12-20T04:11:11;7.33;;;1.50;;
19095;SDS011;9680;52.520;13.332;2023-12-20T04:13:37;13.30;;;1.70;;
19095;SDS011;9680;52.520;13.332;2023-12-20T04:16:04;5.03;;;1.37;;
19095;SDS011;9680;52.520;13.332;2023-12-20T04:18:31;3.77;;;1.50;;
19095;SDS011;9680;52.520;13.332;2023-12-20T04:20:58;6.50;;;1.47;;
19095;SDS011;9680;52.520;13.332;2023-12-20T04:23:26;6.93;;;1.70;;
19095;SDS011;9680;52.520;13.332;2023-12-20T04:25:53;4.30;;;1.43;;
19095;SDS011;9680;52.520;13.332;2023-12-20T04:28:19;8.23;;;1.60;;
19095;SDS011;9680;52.520;13.332;2023-12-20T04:30:46;4.73;;;1.70;;
19095;SDS011;9680;52.520;13.332;2023-12-20T04:33:13;5.67;;;1.40;;
19095;SDS011;9680;52.520;13.332;2023-12-20T04:35:39;6.37;;;1.53;;
19095;SDS011;9680;52.520;13.332;2023-12-20T04:38:08;10.00;;;1.50;;
19095;SDS011;9680;52.520;13.332;2023-12-20T04:40:36;8.57;;;1.30;;
19095;SDS011;9680;52.520;13.332;2023-12-20T04:43:02;7.53;;;1.70;;
19095;SDS011;9680;52.520;13.332;2023-12-20T04:45:29;6.57;;;1.50;;
19095;SDS011;9680;52.520;13.332;2023-12-20T04:47:56;7.90;;;1.83;;
19095;SDS011;9680;52.520;13.332;2023-12-20T04:50:23;11.27;;;1.50;;
19095;SDS011;9680;52.520;13.332;2023-12-20T04:52:49;6.03;;;1.13;;
19095;SDS011;9680;52.520;13.332;2023-12-20T04:55:16;11.60;;;1.40;;
19095;SDS011;9680;52.520;13.332;2023-12-20T04:57:44;4.63;;;1.30;;
19095;SDS011;9680;52.520;13.332;2023-12-20T05:00:11;7.60;;;1.47;;
19095;SDS011;9680;52.520;13.332;2023-12-20T05:02:40;6.57;;;1.23;;
19095;SDS011;9680;52.520;13.332;2023-12-20T05:05:08;9.70;;;1.40;;
19095;SDS011;9680;52.520;13.332;2023-12-20T05:07:34;6.40;;;1.47;;
19095;SDS011;9680;52.520;13.332;2023-12-20T05:10:01;8.60;;;1.60;;
19095;SDS011;9680;52.520;13.332;2023-12-20T05:12:29;6.97;;;1.80;;
19095;SDS011;9680;52.520;13.332;2023-12-20T05:14:58;5.70;;;1.40;;
19095;SDS011;9680;52.520;13.332;2023-12-20T05:17:24;6.57;;;1.53;;
19095;SDS011;9680;52.520;13.332;2023-12-20T05:19:51;10.73;;;1.77;;
19095;SDS011;9680;52.520;13.332;2023-12-20T05:22:18;7.90;;;1.10;;
19095;SDS011;9680;52.520;13.332;2023-12-20T05:24:45;8.17;;;1.97;;
19095;SDS011;9680;52.520;13.332;2023-12-20T05:27:11;10.90;;;1.60;;
19095;SDS011;9680;52.520;13.332;2023-12-20T05:29:38;4.40;;;1.30;;
19095;SDS011;9680;52.520;13.332;2023-12-20T05:32:06;7.80;;;1.37;;
19095;SDS011;9680;52.520;13.332;2023-12-20T05:34:33;9.00;;;1.50;;
19095;SDS011;9680;52.520;13.332;2023-12-20T05:37:00;5.73;;;1.17;;
19095;SDS011;9680;52.520;13.332;2023-12-20T05:39:27;10.50;;;1.73;;
19095;SDS011;9680;52.520;13.332;2023-12-20T05:41:53;4.77;;;1.53;;
19095;SDS011;9680;52.520;13.332;2023-12-20T05:44:20;9.13;;;1.50;;
19095;SDS011;9680;52.520;13.332;2023-12-20T05:46:47;6.13;;;1.20;;
19095;SDS011;9680;52.520;13.332;2023-12-20T05:49:15;6.00;;;1.10;;
19095;SDS011;9680;52.520;13.332;2023-12-20T05:51:41;9.03;;;1.30;;
19095;SDS011;9680;52.520;13.332;2023-12-20T05:54:09;5.00;;;1.20;;
19095;SDS011;9680;52.520;13.332;2023-12-20T05:56:35;8.83;;;1.40;;
19095;SDS011;9680;52.520;13.332;2023-12-20T05:59:02;4.10;;;1.30;;
19095;SDS011;9680;52.520;13.332;2023-12-20T06:01:29;7.27;;;1.60;;
19095;SDS011;9680;52.520;13.332;2023-12-20T06:03:55;11.67;;;1.47;;
19095;SDS011;9680;52.520;13.332;2023-12-20T06:06:24;6.20;;;1.37;;
19095;SDS011;9680;52.520;13.332;2023-12-20T06:08:50;10.70;;;1.80;;
19095;SDS011;9680;52.520;13.332;2023-12-20T06:11:17;3.43;;;1.07;;
19095;SDS011;9680;52.520;13.332;2023-12-20T06:13:44;9.67;;;1.40;;
19095;SDS011;9680;52.520;13.332;2023-12-20T06:16:11;6.43;;;1.63;;
19095;SDS011;9680;52.520;13.332;2023-12-20T06:18:37;2.93;;;1.10;;
19095;SDS011;9680;52.520;13.332;2023-12-20T06:21:04;7.03;;;1.40;;
19095;SDS011;9680;52.520;13.332;2023-12-20T06:23:36;6.60;;;1.33;;
19095;SDS011;9680;52.520;13.332;2023-12-20T06:26:03;8.40;;;1.53;;
19095;SDS011;9680;52.520;13.332;2023-12-20T06:28:31;5.53;;;1.27;;
19095;SDS011;9680;52.520;13.332;2023-12-20T06:30:57;6.33;;;1.30;;
19095;SDS011;9680;52.520;13.332;2023-12-20T06:33:25;8.03;;;1.50;;
19095;SDS011;9680;52.520;13.332;2023-12-20T06:35:52;5.07;;;1.70;;
19095;SDS011;9680;52.520;13.332;2023-12-20T06:38:20;5.10;;;1.30;;
19095;SDS011;9680;52.520;13.332;2023-12-20T06:40:48;6.67;;;1.40;;
19095;SDS011;9680;52.520;13.332;2023-12-20T06:43:15;4.73;;;1.13;;
19095;SDS011;9680;52.520;13.332;2023-12-20T06:45:43;12.90;;;1.90;;
19095;SDS011;9680;52.520;13.332;2023-12-20T06:48:10;6.97;;;1.23;;
19095;SDS011;9680;52.520;13.332;2023-12-20T06:50:38;9.83;;;1.73;;
19095;SDS011;9680;52.520;13.332;2023-12-20T06:53:05;9.53;;;1.67;;
19095;SDS011;9680;52.520;13.332;2023-12-20T06:55:33;5.53;;;1.57;;
19095;SDS011;9680;52.520;13.332;2023-12-20T06:58:02;4.30;;;1.30;;
19095;SDS011;9680;52.520;13.332;2023-12-20T07:00:28;5.43;;;1.43;;
19095;SDS011;9680;52.520;13.332;2023-12-20T07:02:55;5.20;;;1.20;;
19095;SDS011;9680;52.520;13.332;2023-12-20T07:05:22;7.77;;;1.37;;
19095;SDS011;9680;52.520;13.332;2023-12-20T07:07:48;10.13;;;1.53;;
19095;SDS011;9680;52.520;13.332;2023-12-20T07:10:15;8.13;;;1.50;;
19095;SDS011;9680;52.520;13.332;2023-12-20T07:12:42;8.73;;;1.40;;
19095;SDS011;9680;52.520;13.332;2023-12-20T07:15:10;7.27;;;1.70;;
19095;SDS011;9680;52.520;13.332;2023-12-20T07:17:37;4.63;;;1.50;;
19095;SDS011;9680;52.520;13.332;2023-12-20T07:20:05;4.70;;;1.47;;
19095;SDS011;9680;52.520;13.332;2023-12-20T07:22:35;8.60;;;1.73;;
19095;SDS011;9680;52.520;13.332;2023-12-20T07:25:01;15.47;;;1.90;;
19095;SDS011;9680;52.520;13.332;2023-12-20T07:27:28;6.83;;;1.23;;
19095;SDS011;9680;52.520;13.332;2023-12-20T07:29:55;6.50;;;1.23;;
19095;SDS011;9680;52.520;13.332;2023-12-20T07:32:23;6.80;;;1.50;;
19095;SDS011;9680;52.520;13.332;2023-12-20T07:34:50;9.50;;;1.30;;
19095;SDS011;9680;52.520;13.332;2023-12-20T07:37:17;8.67;;;1.70;;
19095;SDS011;9680;52.520;13.332;2023-12-20T07:39:43;6.13;;;2.00;;
19095;SDS011;9680;52.520;13.332;2023-12-20T07:42:10;9.43;;;1.70;;
19095;SDS011;9680;52.520;13.332;2023-12-20T07:44:37;6.60;;;1.40;;
19095;SDS011;9680;52.520;13.332;2023-12-20T07:47:04;9.20;;;1.40;;
19095;SDS011;9680;52.520;13.332;2023-12-20T07:49:32;7.90;;;1.60;;
19095;SDS011;9680;52.520;13.332;2023-12-20T07:51:59;8.83;;;1.63;;
19095;SDS011;9680;52.520;13.332;2023-12-20T07:54:25;6.43;;;1.97;;
19095;SDS011;9680;52.520;13.332;2023-12-20T07:56:52;7.43;;;1.23;;
19095;SDS011;9680;52.520;13.332;2023-12-20T07:59:19;8.60;;;1.43;;
19095;SDS011;9680;52.520;13.332;2023-12-20T08:01:45;8.30;;;1.43;;
19095;SDS011;9680;52.520;13.332;2023-12-20T08:04:12;4.87;;;1.20;;
19095;SDS011;9680;52.520;13.332;2023-12-20T08:06:40;4.50;;;1.50;;
19095;SDS011;9680;52.520;13.332;2023-12-20T08:09:07;29.70;;;2.33;;
19095;SDS011;9680;52.520;13.332;2023-12-20T08:11:33;5.53;;;1.20;;
19095;SDS011;9680;52.520;13.332;2023-12-20T08:14:00;6.63;;;1.50;;
19095;SDS011;9680;52.520;13.332;2023-12-20T08:16:27;9.77;;;1.40;;
19095;SDS011;9680;52.520;13.332;2023-12-20T08:18:53;9.17;;;1.77;;
19095;SDS011;9680;52.520;13.332;2023-12-20T08:21:20;8.70;;;1.47;;
19095;SDS011;9680;52.520;13.332;2023-12-20T08:23:50;9.00;;;1.60;;
19095;SDS011;9680;52.520;13.332;2023-12-20T08:26:18;9.13;;;1.60;;
19095;SDS011;9680;52.520;13.332;2023-12-20T08:28:47;8.23;;;2.80;;
19095;SDS011;9680;52.520;13.332;2023-12-20T08:31:14;12.77;;;2.53;;
19095;SDS011;9680;52.520;13.332;2023-12-20T08:33:42;16.03;;;1.80;;
19095;SDS011;9680;52.520;13.332;2023-12-20T08:36:10;6.70;;;1.47;;
19095;SDS011;9680;52.520;13.332;2023-12-20T08:38:37;5.40;;;1.23;;
19095;SDS011;9680;52.520;13.332;2023-12-20T08:41:06;4.57;;;1.30;;
19095;SDS011;9680;52.520;13.332;2023-12-20T08:43:33;5.23;;;1.00;;
19095;SDS011;9680;52.520;13.332;2023-12-20T08:46:01;3.97;;;1.30;;
19095;SDS011;9680;52.520;13.332;2023-12-20T08:48:28;5.07;;;1.10;;
19095;SDS011;9680;52.520;13.332;2023-12-20T08:50:55;8.13;;;1.50;;
19095;SDS011;9680;52.520;13.332;2023-12-20T08:53:21;5.60;;;1.40;;
19095;SDS011;9680;52.520;13.332;2023-12-20T08:55:48;3.83;;;1.17;;
19095;SDS011;9680;52.520;13.332;2023-12-20T08:58:16;8.60;;;1.80;;
19095;SDS011;9680;52.520;13.332;2023-12-20T09:00:43;5.50;;;1.63;;
19095;SDS011;9680;52.520;13.332;2023-12-20T09:03:10;10.07;;;2.03;;
19095;SDS011;9680;52.520;13.332;2023-12-20T09:05:36;7.00;;;1.57;;
19095;SDS011;9680;52.520;13.332;2023-12-20T09:08:03;9.20;;;1.50;;
19095;SDS011;9680;52.520;13.332;2023-12-20T09:10:33;14.13;;;2.00;;
19095;SDS011;9680;52.520;13.332;2023-12-20T09:12:59;14.33;;;1.97;;
19095;SDS011;9680;52.520;13.332;2023-12-20T09:15:27;8.87;;;1.57;;
19095;SDS011;9680;52.520;13.332;2023-12-20T09:17:55;7.13;;;1.60;;
19095;SDS011;9680;52.520;13.332;2023-12-20T09:20:22;11.17;;;1.57;;
19095;SDS011;9680;52.520;13.332;2023-12-20T09:22:49;8.10;;;1.30;;
19095;SDS011;9680;52.520;13.332;2023-12-20T09:25:16;9.70;;;1.60;;
19095;SDS011;9680;52.520;13.332;2023-12-20T09:27:43;8.97;;;1.80;;
19095;SDS011;9680;52.520;13.332;2023-12-20T09:30:09;8.30;;;1.50;;
19095;SDS011;9680;52.520;13.332;2023-12-20T09:32:38;4.33;;;1.40;;
19095;SDS011;9680;52.520;13.332;2023-12-20T09:35:05;5.30;;;1.50;;
19095;SDS011;9680;52.520;13.332;2023-12-20T09:37:33;8.90;;;1.60;;
19095;SDS011;9680;52.520;13.332;2023-12-20T09:40:00;4.13;;;1.27;;
19095;SDS011;9680;52.520;13.332;2023-12-20T09:42:29;7.83;;;1.60;;
19095;SDS011;9680;52.520;13.332;2023-12-20T09:45:04;7.93;;;1.43;;
19095;SDS011;9680;52.520;13.332;2023-12-20T09:47:35;8.40;;;1.60;;
19095;SDS011;9680;52.520;13.332;2023-12-20T09:50:03;8.90;;;1.67;;
19095;SDS011;9680;52.520;13.332;2023-12-20T09:52:31;6.87;;;1.83;;
19095;SDS011;9680;52.520;13.332;2023-12-20T09:54:59;11.73;;;1.63;;
19095;SDS011;9680;52.520;13.332;2023-12-20T09:57:29;7.63;;;1.80;;
19095;SDS011;9680;52.520;13.332;2023-12-20T09:59:56;13.03;;;1.67;;
19095;SDS011;9680;52.520;13.332;2023-12-20T10:02:23;13.90;;;2.03;;
19095;SDS011;9680;52.520;13.332;2023-12-20T10:04:52;12.33;;;1.77;;
19095;SDS011;9680;52.520;13.332;2023-12-20T10:07:21;8.00;;;1.43;;
19095;SDS011;9680;52.520;13.332;2023-12-20T10:09:48;12.00;;;1.77;;
19095;SDS011;9680;52.520;13.332;2023-12-20T10:12:17;10.57;;;1.83;;
19095;SDS011;9680;52.520;13.332;2023-12-20T10:14:44;5.57;;;1.40;;
19095;SDS011;9680;52.520;13.332;2023-12-20T10:17:10;14.20;;;1.77;;
19095;SDS011;9680;52.520;13.332;2023-12-20T10:19:37;7.83;;;1.60;;
19095;SDS011;9680;52.520;13.332;2023-12-20T10:22:04;11.10;;;1.60;;
19095;SDS011;9680;52.520;13.332;2023-12-20T10:24:32;9.67;;;1.70;;
19095;SDS011;9680;52.520;13.332;2023-12-20T10:27:02;15.40;;;1.70;;
19095;SDS011;9680;52.520;13.332;2023-12-20T10:29:33;10.07;;;1.50;;
19095;SDS011;9680;52.520;13.332;2023-12-20T10:32:05;7.03;;;1.33;;
19095;SDS011;9680;52.520;13.332;2023-12-20T10:34:49;5.63;;;1.30;;
19095;SDS011;9680;52.520;13.332;2023-12-20T10:37:16;10.43;;;1.47;;
19095;SDS011;9680;52.520;13.332;2023-12-20T10:39:44;9.17;;;1.60;;
19095;SDS011;9680;52.520;13.332;2023-12-20T10:42:15;6.50;;;1.60;;
19095;SDS011;9680;52.520;13.332;2023-12-20T10:44:42;8.57;;;1.47;;
19095;SDS011;9680;52.520;13.332;2023-12-20T10:47:09;7.73;;;1.87;;
19095;SDS011;9680;52.520;13.332;2023-12-20T10:49:39;11.33;;;1.83;;
19095;SDS011;9680;52.520;13.332;2023-12-20T10:52:06;11.93;;;1.50;;
19095;SDS011;9680;52.520;13.332;2023-12-20T10:54:35;9.83;;;1.63;;
19095;SDS011;9680;52.520;13.332;2023-12-20T10:57:04;8.27;;;1.50;;
19095;SDS011;9680;52.520;13.332;2023-12-20T10:59:33;5.37;;;1.40;;
19095;SDS011;9680;52.520;13.332;2023-12-20T11:02:01;6.13;;;1.93;;
19095;SDS011;9680;52.520;13.332;2023-12-20T11:04:31;9.90;;;1.97;;
19095;SDS011;9680;52.520;13.332;2023-12-20T11:07:08;8.03;;;1.80;;
19095;SDS011;9680;52.520;13.332;2023-12-20T11:09:45;10.20;;;1.60;;
19095;SDS011;9680;52.520;13.332;2023-12-20T11:12:18;6.63;;;1.70;;
19095;SDS011;9680;52.520;13.332;2023-12-20T11:14:51;6.00;;;1.53;;
19095;SDS011;9680;52.520;13.332;2023-12-20T11:17:22;5.50;;;1.77;;
19095;SDS011;9680;52.520;13.332;2023-12-20T11:20:05;11.37;;;1.90;;
19095;SDS011;9680;52.520;13.332;2023-12-20T11:22:35;10.70;;;1.70;;
19095;SDS011;9680;52.520;13.332;2023-12-20T11:25:04;7.83;;;1.93;;
19095;SDS011;9680;52.520;13.332;2023-12-20T11:27:34;8.17;;;1.87;;
19095;SDS011;9680;52.520;13.332;2023-12-20T11:30:02;12.60;;;2.10;;
19095;SDS011;9680;52.520;13.332;2023-12-20T11:32:33;8.97;;;1.67;;
19095;SDS011;9680;52.520;13.332;2023-12-20T11:35:01;11.13;;;1.90;;
19095;SDS011;9680;52.520;13.332;2023-12-20T11:37:44;8.80;;;2.27;;
19095;SDS011;9680;52.520;13.332;2023-12-20T11:40:13;7.43;;;1.90;;
19095;SDS011;9680;52.520;13.332;2023-12-20T11:42:43;9.37;;;1.97;;
19095;SDS011;9680;52.520;13.332;2023-12-20T11:45:11;12.13;;;1.70;;
19095;SDS011;9680;52.520;13.332;2023-12-20T11:47:42;7.60;;;1.80;;
19095;SDS011;9680;52.520;13.332;2023-12-20T11:50:09;7.70;;;1.80;;
19095;SDS011;9680;52.520;13.332;2023-12-20T11:52:36;8.47;;;1.50;;
19095;SDS011;9680;52.520;13.332;2023-12-20T11:55:03;9.67;;;2.20;;
19095;SDS011;9680;52.520;13.332;2023-12-20T11:57:30;14.73;;;2.10;;
19095;SDS011;9680;52.520;13.332;2023-12-20T11:59:58;7.60;;;1.90;;
19095;SDS011;9680;52.520;13.332;2023-12-20T12:02:25;6.07;;;1.83;;
19095;SDS011;9680;52.520;13.332;2023-12-20T12:04:52;8.80;;;1.87;;
19095;SDS011;9680;52.520;13.332;2023-12-20T12:07:20;6.37;;;1.53;;
19095;SDS011;9680;52.520;13.332;2023-12-20T12:09:47;9.13;;;1.87;;
19095;SDS011;9680;52.520;13.332;2023-12-20T12:12:14;4.70;;;1.70;;
19095;SDS011;9680;52.520;13.332;2023-12-20T12:14:41;5.70;;;1.50;;
19095;SDS011;9680;52.520;13.332;2023-12-20T12:17:11;13.23;;;1.63;;
19095;SDS011;9680;52.520;13.332;2023-12-20T12:19:38;9.93;;;2.00;;
19095;SDS011;9680;52.520;13.332;2023-12-20T12:22:06;7.80;;;1.70;;
19095;SDS011;9680;52.520;13.332;2023-12-20T12:24:35;6.10;;;1.60;;
19095;SDS011;9680;52.520;13.332;2023-12-20T12:27:02;7.77;;;1.87;;
19095;SDS011;9680;52.520;13.332;2023-12-20T12:29:29;7.03;;;1.87;;
19095;SDS011;9680;52.520;13.332;2023-12-20T12:31:56;9.13;;;1.80;;
19095;SDS011;9680;52.520;13.332;2023-12-20T12:34:24;7.93;;;1.67;;
19095;SDS011;9680;52.520;13.332;2023-12-20T12:36:53;7.60;;;1.83;;
19095;SDS011;9680;52.520;13.332;2023-12-20T12:39:20;7.30;;;1.57;;
19095;SDS011;9680;52.520;13.332;2023-12-20T12:41:47;9.87;;;1.83;;
19095;SDS011;9680;52.520;13.332;2023-12-20T12:44:13;9.17;;;2.17;;
19095;SDS011;9680;52.520;13.332;2023-12-20T12:46:40;10.30;;;1.70;;
19095;SDS011;9680;52.520;13.332;2023-12-20T12:49:07;4.40;;;1.57;;
19095;SDS011;9680;52.520;13.332;2023-12-20T12:51:35;8.23;;;1.50;;
19095;SDS011;9680;52.520;13.332;2023-12-20T12:54:02;6.67;;;1.60;;
19095;SDS011;9680;52.520;13.332;2023-12-20T12:56:29;8.87;;;1.80;;
19095;SDS011;9680;52.520;13.332;2023-12-20T12:58:55;6.47;;;2.00;;
19095;SDS011;9680;52.520;13.332;2023-12-20T13:01:22;5.83;;;1.63;;
19095;SDS011;9680;52.520;13.332;2023-12-20T13:03:49;9.80;;;2.27;;
19095;SDS011;9680;52.520;13.332;2023-12-20T13:06:16;6.23;;;2.20;;
19095;SDS011;9680;52.520;13.332;2023-12-20T13:08:44;5.37;;;1.77;;
19095;SDS011;9680;52.520;13.332;2023-12-20T13:11:11;10.63;;;2.30;;
19095;SDS011;9680;52.520;13.332;2023-12-20T13:13:38;8.87;;;2.23;;
19095;SDS011;9680;52.520;13.332;2023-12-20T13:16:05;8.77;;;2.23;;
19095;SDS011;9680;52.520;13.332;2023-12-20T13:18:32;5.60;;;2.40;;
19095;SDS011;9680;52.520;13.332;2023-12-20T13:20:58;4.07;;;1.63;;
19095;SDS011;9680;52.520;13.332;2023-12-20T13:23:25;2.90;;;1.17;;
19095;SDS011;9680;52.520;13.332;2023-12-20T13:25:53;3.37;;;1.30;;
19095;SDS011;9680;52.520;13.332;2023-12-20T13:28:20;4.80;;;1.50;;
19095;SDS011;9680;52.520;13.332;2023-12-20T13:30:47;5.60;;;1.33;;
19095;SDS011;9680;52.520;13.332;2023-12-20T13:33:13;6.23;;;1.33;;
19095;SDS011;9680;52.520;13.332;2023-12-20T13:35:40;2.17;;;0.80;;
19095;SDS011;9680;52.520;13.332;2023-12-20T13:38:07;1.10;;;0.60;;
19095;SDS011;9680;52.520;13.332;2023-12-20T13:40:33;4.63;;;0.87;;
19095;SDS011;9680;52.520;13.332;2023-12-20T13:43:01;1.83;;;0.80;;
19095;SDS011;9680;52.520;13.332;2023-12-20T13:45:29;2.33;;;0.90;;
19095;SDS011;9680;52.520;13.332;2023-12-20T13:47:55;1.97;;;0.70;;
19095;SDS011;9680;52.520;13.332;2023-12-20T13:50:22;3.03;;;0.90;;
19095;SDS011;9680;52.520;13.332;2023-12-20T13:53:24;5.00;;;0.70;;
19095;SDS011;9680;52.520;13.332;2023-12-20T13:55:51;4.37;;;0.93;;
19095;SDS011;9680;52.520;13.332;2023-12-20T13:58:32;2.60;;;0.80;;
19095;SDS011;9680;52.520;13.332;2023-12-20T14:01:38;1.63;;;0.80;;
19095;SDS011;9680;52.520;13.332;2023-12-20T14:04:39;1.57;;;0.90;;
19095;SDS011;9680;52.520;13.332;2023-12-20T14:07:06;5.33;;;1.17;;
19095;SDS011;9680;52.520;13.332;2023-12-20T14:09:33;3.80;;;0.80;;
19095;SDS011;9680;52.520;13.332;2023-12-20T14:12:00;8.63;;;1.77;;
19095;SDS011;9680;52.520;13.332;2023-12-20T14:14:27;1.60;;;0.70;;
19095;SDS011;9680;52.520;13.332;2023-12-20T14:16:55;3.20;;;1.00;;
19095;SDS011;9680;52.520;13.332;2023-12-20T14:19:21;1.90;;;0.60;;
19095;SDS011;9680;52.520;13.332;2023-12-20T14:21:48;2.47;;;0.60;;
19095;SDS011;9680;52.520;13.332;2023-12-20T14:24:15;3.80;;;0.80;;
19095;SDS011;9680;52.520;13.332;2023-12-20T14:26:41;1.27;;;0.70;;
19095;SDS011;9680;52.520;13.332;2023-12-20T14:29:08;0.80;;;0.40;;
19095;SDS011;9680;52.520;13.332;2023-12-20T14:31:37;2.73;;;0.67;;
19095;SDS011;9680;52.520;13.332;2023-12-20T14:34:05;1.30;;;0.57;;
19095;SDS011;9680;52.520;13.332;2023-12-20T14:36:34;2.20;;;1.00;;
19095;SDS011;9680;52.520;13.332;2023-12-20T14:39:00;1.93;;;0.50;;
19095;SDS011;9680;52.520;13.332;2023-12-20T14:41:28;1.87;;;0.50;;
19095;SDS011;9680;52.520;13.332;2023-12-20T14:43:54;0.87;;;0.50;;
19095;SDS011;9680;52.520;13.332;2023-12-20T14:46:21;2.00;;;0.60;;
19095;SDS011;9680;52.520;13.332;2023-12-20T14:48:49;2.33;;;0.70;;